sensor_id;sensor_type;location;lat;lon;timestamp;P1;durP1;ratioP1;P2;durP2;ratioP2
61383;SDS011;63511;49.346;8.798;2023-02-28T00:00:34;5.03;;;2.03;;
61383;SDS011;63511;49.346;8.798;2023-02-28T00:03:02;5.10;;;2.63;;
61383;SDS011;63511;49.346;8.798;2023-02-28T00:05:29;7.57;;;2.90;;
61383;SDS011;63511;49.346;8.798;2023-02-28T00:07:55;8.07;;;2.72;;
61383;SDS011;63511;49.346;8.798;2023-02-28T00:10:23;4.55;;;2.60;;
61383;SDS011;63511;49.346;8.798;2023-02-28T00:12:52;5.00;;;2.67;;
61383;SDS011;63511;49.346;8.798;2023-02-28T00:15:23;3.58;;;2.38;;
61383;SDS011;63511;49.346;8.798;2023-02-28T00:17:49;6.70;;;2.78;;
61383;SDS011;63511;49.346;8.798;2023-02-28T00:20:16;4.78;;;2.22;;
61383;SDS011;63511;49.346;8.798;2023-02-28T00:22:44;9.60;;;3.20;;
61383;SDS011;63511;49.346;8.798;2023-02-28T00:25:13;4.40;;;2.90;;
61383;SDS011;63511;49.346;8.798;2023-02-28T00:27:41;7.45;;;2.97;;
61383;SDS011;63511;49.346;8.798;2023-02-28T00:30:09;6.80;;;2.47;;
61383;SDS011;63511;49.346;8.798;2023-02-28T00:32:39;3.30;;;2.60;;
61383;SDS011;63511;49.346;8.798;2023-02-28T00:35:06;10.85;;;3.47;;
61383;SDS011;63511;49.346;8.798;2023-02-28T00:37:34;7.38;;;3.17;;
61383;SDS011;63511;49.346;8.798;2023-02-28T00:40:01;6.65;;;2.75;;
61383;SDS011;63511;49.346;8.798;2023-02-28T00:42:29;4.68;;;3.22;;
61383;SDS011;63511;49.346;8.798;2023-02-28T00:44:56;5.88;;;3.40;;
61383;SDS011;63511;49.346;8.798;2023-02-28T00:47:22;6.55;;;3.17;;
61383;SDS011;63511;49.346;8.798;2023-02-28T00:49:50;8.07;;;3.20;;
61383;SDS011;63511;49.346;8.798;2023-02-28T00:52:17;5.70;;;3.10;;
61383;SDS011;63511;49.346;8.798;2023-02-28T00:54:43;5.80;;;3.13;;
61383;SDS011;63511;49.346;8.798;2023-02-28T00:57:10;5.93;;;3.35;;
61383;SDS011;63511;49.346;8.798;2023-02-28T00:59:36;5.55;;;2.72;;
61383;SDS011;63511;49.346;8.798;2023-02-28T01:02:03;5.50;;;2.88;;
61383;SDS011;63511;49.346;8.798;2023-02-28T01:04:29;5.30;;;2.72;;
61383;SDS011;63511;49.346;8.798;2023-02-28T01:06:57;5.03;;;3.25;;
61383;SDS011;63511;49.346;8.798;2023-02-28T01:09:24;6.15;;;2.88;;
61383;SDS011;63511;49.346;8.798;2023-02-28T01:11:50;4.55;;;2.97;;
61383;SDS011;63511;49.346;8.798;2023-02-28T01:14:17;5.60;;;2.85;;
61383;SDS011;63511;49.346;8.798;2023-02-28T01:16:44;7.95;;;3.10;;
61383;SDS011;63511;49.346;8.798;2023-02-28T01:19:11;4.40;;;2.85;;
61383;SDS011;63511;49.346;8.798;2023-02-28T01:21:37;4.47;;;2.35;;
61383;SDS011;63511;49.346;8.798;2023-02-28T01:24:06;4.47;;;2.83;;
61383;SDS011;63511;49.346;8.798;2023-02-28T01:26:33;5.25;;;2.60;;
61383;SDS011;63511;49.346;8.798;2023-02-28T01:28:59;4.85;;;2.75;;
61383;SDS011;63511;49.346;8.798;2023-02-28T01:31:26;6.35;;;3.63;;
61383;SDS011;63511;49.346;8.798;2023-02-28T01:33:52;5.28;;;2.78;;
61383;SDS011;63511;49.346;8.798;2023-02-28T01:36:20;4.63;;;3.05;;
61383;SDS011;63511;49.346;8.798;2023-02-28T01:38:48;9.05;;;3.70;;
61383;SDS011;63511;49.346;8.798;2023-02-28T01:41:17;7.32;;;3.40;;
61383;SDS011;63511;49.346;8.798;2023-02-28T01:43:53;10.23;;;3.72;;
61383;SDS011;63511;49.346;8.798;2023-02-28T01:46:24;5.32;;;2.97;;
61383;SDS011;63511;49.346;8.798;2023-02-28T01:48:51;7.85;;;3.50;;
61383;SDS011;63511;49.346;8.798;2023-02-28T01:51:22;5.53;;;3.58;;
61383;SDS011;63511;49.346;8.798;2023-02-28T01:53:54;5.03;;;2.90;;
61383;SDS011;63511;49.346;8.798;2023-02-28T01:56:25;6.00;;;3.67;;
61383;SDS011;63511;49.346;8.798;2023-02-28T01:58:55;11.13;;;4.03;;
61383;SDS011;63511;49.346;8.798;2023-02-28T02:01:22;7.47;;;3.67;;
61383;SDS011;63511;49.346;8.798;2023-02-28T02:03:54;7.80;;;3.92;;
61383;SDS011;63511;49.346;8.798;2023-02-28T02:06:23;10.27;;;4.20;;
61383;SDS011;63511;49.346;8.798;2023-02-28T02:08:53;6.05;;;3.95;;
61383;SDS011;63511;49.346;8.798;2023-02-28T02:11:20;5.22;;;2.97;;
61383;SDS011;63511;49.346;8.798;2023-02-28T02:14:01;7.97;;;4.10;;
61383;SDS011;63511;49.346;8.798;2023-02-28T02:16:45;7.55;;;4.57;;
61383;SDS011;63511;49.346;8.798;2023-02-28T02:19:30;7.63;;;4.60;;
61383;SDS011;63511;49.346;8.798;2023-02-28T02:25:19;6.32;;;3.40;;
61383;SDS011;63511;49.346;8.798;2023-02-28T02:28:03;10.13;;;4.30;;
61383;SDS011;63511;49.346;8.798;2023-02-28T02:30:52;5.68;;;3.63;;
61383;SDS011;63511;49.346;8.798;2023-02-28T02:36:51;8.43;;;4.10;;
61383;SDS011;63511;49.346;8.798;2023-02-28T02:39:26;5.13;;;3.50;;
61383;SDS011;63511;49.346;8.798;2023-02-28T02:41:59;6.60;;;4.00;;
61383;SDS011;63511;49.346;8.798;2023-02-28T02:44:29;12.90;;;4.03;;
61383;SDS011;63511;49.346;8.798;2023-02-28T02:47:03;9.27;;;4.53;;
61383;SDS011;63511;49.346;8.798;2023-02-28T02:49:36;8.05;;;3.80;;
61383;SDS011;63511;49.346;8.798;2023-02-28T02:52:07;7.60;;;3.97;;
61383;SDS011;63511;49.346;8.798;2023-02-28T02:54:39;7.15;;;4.00;;
61383;SDS011;63511;49.346;8.798;2023-02-28T02:57:11;6.88;;;3.67;;
61383;SDS011;63511;49.346;8.798;2023-02-28T02:59:42;4.88;;;3.40;;
61383;SDS011;63511;49.346;8.798;2023-02-28T03:02:11;7.28;;;3.80;;
61383;SDS011;63511;49.346;8.798;2023-02-28T03:04:42;6.88;;;4.00;;
61383;SDS011;63511;49.346;8.798;2023-02-28T03:07:11;5.65;;;3.88;;
61383;SDS011;63511;49.346;8.798;2023-02-28T03:09:38;9.60;;;3.90;;
61383;SDS011;63511;49.346;8.798;2023-02-28T03:12:04;10.55;;;4.10;;
61383;SDS011;63511;49.346;8.798;2023-02-28T03:14:40;11.90;;;4.10;;
61383;SDS011;63511;49.346;8.798;2023-02-28T03:17:21;7.18;;;3.38;;
61383;SDS011;63511;49.346;8.798;2023-02-28T03:20:01;9.25;;;4.38;;
61383;SDS011;63511;49.346;8.798;2023-02-28T03:25:19;6.90;;;3.47;;
61383;SDS011;63511;49.346;8.798;2023-02-28T03:27:55;6.97;;;3.63;;
61383;SDS011;63511;49.346;8.798;2023-02-28T03:30:31;9.68;;;4.20;;
61383;SDS011;63511;49.346;8.798;2023-02-28T03:33:03;7.10;;;3.70;;
61383;SDS011;63511;49.346;8.798;2023-02-28T03:35:37;4.70;;;3.25;;
61383;SDS011;63511;49.346;8.798;2023-02-28T03:38:07;10.10;;;4.35;;
61383;SDS011;63511;49.346;8.798;2023-02-28T03:40:39;6.88;;;4.28;;
61383;SDS011;63511;49.346;8.798;2023-02-28T03:43:12;6.95;;;4.30;;
61383;SDS011;63511;49.346;8.798;2023-02-28T03:45:44;9.27;;;4.50;;
61383;SDS011;63511;49.346;8.798;2023-02-28T03:48:15;9.23;;;4.15;;
61383;SDS011;63511;49.346;8.798;2023-02-28T03:50:47;9.77;;;4.28;;
61383;SDS011;63511;49.346;8.798;2023-02-28T03:53:18;8.10;;;4.75;;
61383;SDS011;63511;49.346;8.798;2023-02-28T03:58:16;8.98;;;5.10;;
61383;SDS011;63511;49.346;8.798;2023-02-28T04:00:48;7.82;;;4.30;;
61383;SDS011;63511;49.346;8.798;2023-02-28T04:03:20;11.45;;;5.63;;
61383;SDS011;63511;49.346;8.798;2023-02-28T04:05:51;9.02;;;5.22;;
61383;SDS011;63511;49.346;8.798;2023-02-28T04:08:19;8.07;;;4.63;;
61383;SDS011;63511;49.346;8.798;2023-02-28T04:10:48;7.65;;;4.90;;
61383;SDS011;63511;49.346;8.798;2023-02-28T04:13:20;8.95;;;5.05;;
61383;SDS011;63511;49.346;8.798;2023-02-28T04:15:46;8.90;;;5.47;;
61383;SDS011;63511;49.346;8.798;2023-02-28T04:18:13;5.80;;;4.60;;
61383;SDS011;63511;49.346;8.798;2023-02-28T04:20:39;8.93;;;4.85;;
61383;SDS011;63511;49.346;8.798;2023-02-28T04:23:07;10.27;;;4.57;;
61383;SDS011;63511;49.346;8.798;2023-02-28T04:25:34;7.95;;;4.93;;
61383;SDS011;63511;49.346;8.798;2023-02-28T04:28:00;7.88;;;5.38;;
61383;SDS011;63511;49.346;8.798;2023-02-28T04:30:27;6.00;;;4.82;;
61383;SDS011;63511;49.346;8.798;2023-02-28T04:32:54;9.88;;;5.20;;
61383;SDS011;63511;49.346;8.798;2023-02-28T04:35:21;8.43;;;5.40;;
61383;SDS011;63511;49.346;8.798;2023-02-28T04:37:47;8.07;;;4.63;;
61383;SDS011;63511;49.346;8.798;2023-02-28T04:40:16;10.65;;;5.22;;
61383;SDS011;63511;49.346;8.798;2023-02-28T04:42:42;9.07;;;5.57;;
61383;SDS011;63511;49.346;8.798;2023-02-28T04:45:09;9.05;;;4.88;;
61383;SDS011;63511;49.346;8.798;2023-02-28T04:47:36;7.95;;;4.53;;
61383;SDS011;63511;49.346;8.798;2023-02-28T04:50:03;9.60;;;4.80;;
61383;SDS011;63511;49.346;8.798;2023-02-28T04:52:29;10.48;;;5.25;;
61383;SDS011;63511;49.346;8.798;2023-02-28T04:54:56;7.03;;;4.43;;
61383;SDS011;63511;49.346;8.798;2023-02-28T04:57:24;8.70;;;5.13;;
61383;SDS011;63511;49.346;8.798;2023-02-28T04:59:50;11.00;;;6.22;;
61383;SDS011;63511;49.346;8.798;2023-02-28T05:02:17;8.80;;;4.72;;
61383;SDS011;63511;49.346;8.798;2023-02-28T05:04:45;10.05;;;4.82;;
61383;SDS011;63511;49.346;8.798;2023-02-28T05:07:11;7.90;;;4.47;;
61383;SDS011;63511;49.346;8.798;2023-02-28T05:09:38;8.95;;;4.68;;
61383;SDS011;63511;49.346;8.798;2023-02-28T05:12:04;7.00;;;4.40;;
61383;SDS011;63511;49.346;8.798;2023-02-28T05:14:32;12.85;;;4.50;;
61383;SDS011;63511;49.346;8.798;2023-02-28T05:16:59;11.43;;;5.10;;
61383;SDS011;63511;49.346;8.798;2023-02-28T05:19:25;7.07;;;4.00;;
61383;SDS011;63511;49.346;8.798;2023-02-28T05:21:52;10.10;;;4.75;;
61383;SDS011;63511;49.346;8.798;2023-02-28T05:24:20;12.88;;;5.22;;
61383;SDS011;63511;49.346;8.798;2023-02-28T05:26:49;9.57;;;5.45;;
61383;SDS011;63511;49.346;8.798;2023-02-28T05:29:16;8.93;;;5.30;;
61383;SDS011;63511;49.346;8.798;2023-02-28T05:31:44;12.52;;;4.57;;
61383;SDS011;63511;49.346;8.798;2023-02-28T05:34:11;9.73;;;4.55;;
61383;SDS011;63511;49.346;8.798;2023-02-28T05:36:38;12.82;;;5.10;;
61383;SDS011;63511;49.346;8.798;2023-02-28T05:39:05;8.45;;;4.75;;
61383;SDS011;63511;49.346;8.798;2023-02-28T05:41:32;8.90;;;4.43;;
61383;SDS011;63511;49.346;8.798;2023-02-28T05:43:58;8.05;;;4.90;;
61383;SDS011;63511;49.346;8.798;2023-02-28T05:46:26;10.73;;;4.43;;
61383;SDS011;63511;49.346;8.798;2023-02-28T05:48:54;8.57;;;4.20;;
61383;SDS011;63511;49.346;8.798;2023-02-28T05:51:21;9.18;;;5.18;;
61383;SDS011;63511;49.346;8.798;2023-02-28T05:53:47;11.35;;;4.72;;
61383;SDS011;63511;49.346;8.798;2023-02-28T05:56:14;8.25;;;5.60;;
61383;SDS011;63511;49.346;8.798;2023-02-28T05:58:41;11.43;;;5.60;;
61383;SDS011;63511;49.346;8.798;2023-02-28T06:01:20;10.13;;;5.13;;
61383;SDS011;63511;49.346;8.798;2023-02-28T06:04:00;12.40;;;4.47;;
61383;SDS011;63511;49.346;8.798;2023-02-28T06:06:27;10.32;;;4.70;;
61383;SDS011;63511;49.346;8.798;2023-02-28T06:08:54;8.80;;;5.25;;
61383;SDS011;63511;49.346;8.798;2023-02-28T06:11:21;8.57;;;4.55;;
61383;SDS011;63511;49.346;8.798;2023-02-28T06:16:19;8.43;;;4.68;;
61383;SDS011;63511;49.346;8.798;2023-02-28T06:18:46;6.47;;;5.07;;
61383;SDS011;63511;49.346;8.798;2023-02-28T06:21:13;10.60;;;5.03;;
61383;SDS011;63511;49.346;8.798;2023-02-28T06:23:40;11.10;;;4.20;;
61383;SDS011;63511;49.346;8.798;2023-02-28T06:26:07;7.57;;;4.90;;
61383;SDS011;63511;49.346;8.798;2023-02-28T06:28:33;10.65;;;5.57;;
61383;SDS011;63511;49.346;8.798;2023-02-28T06:31:04;9.75;;;5.00;;
61383;SDS011;63511;49.346;8.798;2023-02-28T06:33:32;10.00;;;5.55;;
61383;SDS011;63511;49.346;8.798;2023-02-28T06:35:59;13.45;;;6.03;;
61383;SDS011;63511;49.346;8.798;2023-02-28T06:38:27;13.38;;;6.50;;
61383;SDS011;63511;49.346;8.798;2023-02-28T06:40:54;10.80;;;5.80;;
61383;SDS011;63511;49.346;8.798;2023-02-28T06:43:23;11.40;;;6.00;;
61383;SDS011;63511;49.346;8.798;2023-02-28T06:45:53;11.60;;;5.85;;
61383;SDS011;63511;49.346;8.798;2023-02-28T06:48:20;11.82;;;5.45;;
61383;SDS011;63511;49.346;8.798;2023-02-28T06:50:46;10.93;;;5.47;;
61383;SDS011;63511;49.346;8.798;2023-02-28T06:53:13;9.00;;;5.43;;
61383;SDS011;63511;49.346;8.798;2023-02-28T06:55:41;12.45;;;6.13;;
61383;SDS011;63511;49.346;8.798;2023-02-28T06:58:08;10.25;;;5.95;;
61383;SDS011;63511;49.346;8.798;2023-02-28T07:00:43;9.30;;;4.82;;
61383;SDS011;63511;49.346;8.798;2023-02-28T07:03:10;13.95;;;6.10;;
61383;SDS011;63511;49.346;8.798;2023-02-28T07:05:38;14.35;;;5.47;;
61383;SDS011;63511;49.346;8.798;2023-02-28T07:08:05;11.02;;;5.45;;
61383;SDS011;63511;49.346;8.798;2023-02-28T07:10:32;9.23;;;5.90;;
61383;SDS011;63511;49.346;8.798;2023-02-28T07:13:00;10.57;;;5.93;;
61383;SDS011;63511;49.346;8.798;2023-02-28T07:15:27;12.45;;;6.38;;
61383;SDS011;63511;49.346;8.798;2023-02-28T07:17:53;13.55;;;5.93;;
61383;SDS011;63511;49.346;8.798;2023-02-28T07:20:21;13.23;;;6.35;;
61383;SDS011;63511;49.346;8.798;2023-02-28T07:22:48;11.68;;;6.57;;
61383;SDS011;63511;49.346;8.798;2023-02-28T07:25:20;10.63;;;6.55;;
61383;SDS011;63511;49.346;8.798;2023-02-28T07:27:46;16.85;;;6.38;;
61383;SDS011;63511;49.346;8.798;2023-02-28T07:30:15;13.68;;;5.95;;
61383;SDS011;63511;49.346;8.798;2023-02-28T07:32:42;13.13;;;6.03;;
61383;SDS011;63511;49.346;8.798;2023-02-28T07:35:08;8.90;;;5.78;;
61383;SDS011;63511;49.346;8.798;2023-02-28T07:37:35;12.27;;;6.57;;
61383;SDS011;63511;49.346;8.798;2023-02-28T07:40:02;10.60;;;6.22;;
61383;SDS011;63511;49.346;8.798;2023-02-28T07:42:32;17.75;;;5.45;;
61383;SDS011;63511;49.346;8.798;2023-02-28T07:44:58;11.13;;;5.82;;
61383;SDS011;63511;49.346;8.798;2023-02-28T07:47:26;10.43;;;5.78;;
61383;SDS011;63511;49.346;8.798;2023-02-28T07:49:54;11.98;;;5.60;;
61383;SDS011;63511;49.346;8.798;2023-02-28T07:52:21;12.75;;;6.32;;
61383;SDS011;63511;49.346;8.798;2023-02-28T07:54:48;15.60;;;6.85;;
61383;SDS011;63511;49.346;8.798;2023-02-28T07:57:15;12.75;;;6.55;;
61383;SDS011;63511;49.346;8.798;2023-02-28T07:59:42;14.40;;;6.63;;
61383;SDS011;63511;49.346;8.798;2023-02-28T08:02:09;12.38;;;6.75;;
61383;SDS011;63511;49.346;8.798;2023-02-28T08:04:40;8.98;;;6.07;;
61383;SDS011;63511;49.346;8.798;2023-02-28T08:07:07;15.90;;;7.15;;
61383;SDS011;63511;49.346;8.798;2023-02-28T08:09:34;16.80;;;6.82;;
61383;SDS011;63511;49.346;8.798;2023-02-28T08:12:01;11.35;;;6.28;;
61383;SDS011;63511;49.346;8.798;2023-02-28T08:14:28;11.40;;;6.13;;
61383;SDS011;63511;49.346;8.798;2023-02-28T08:16:54;11.65;;;7.03;;
61383;SDS011;63511;49.346;8.798;2023-02-28T08:19:21;10.07;;;6.55;;
61383;SDS011;63511;49.346;8.798;2023-02-28T08:21:49;16.50;;;6.57;;
61383;SDS011;63511;49.346;8.798;2023-02-28T08:24:15;11.52;;;6.68;;
61383;SDS011;63511;49.346;8.798;2023-02-28T08:26:42;10.45;;;6.43;;
61383;SDS011;63511;49.346;8.798;2023-02-28T08:29:08;10.48;;;5.68;;
61383;SDS011;63511;49.346;8.798;2023-02-28T08:31:35;12.40;;;6.43;;
61383;SDS011;63511;49.346;8.798;2023-02-28T08:34:04;17.45;;;6.40;;
61383;SDS011;63511;49.346;8.798;2023-02-28T08:36:31;12.55;;;6.15;;
61383;SDS011;63511;49.346;8.798;2023-02-28T08:38:59;9.70;;;6.25;;
61383;SDS011;63511;49.346;8.798;2023-02-28T08:41:26;13.13;;;6.63;;
61383;SDS011;63511;49.346;8.798;2023-02-28T08:43:52;8.43;;;5.20;;
61383;SDS011;63511;49.346;8.798;2023-02-28T08:46:19;12.73;;;6.50;;
61383;SDS011;63511;49.346;8.798;2023-02-28T08:48:46;10.75;;;7.00;;
61383;SDS011;63511;49.346;8.798;2023-02-28T08:51:13;8.50;;;5.45;;
61383;SDS011;63511;49.346;8.798;2023-02-28T08:53:43;14.35;;;6.82;;
61383;SDS011;63511;49.346;8.798;2023-02-28T08:56:12;11.45;;;6.53;;
61383;SDS011;63511;49.346;8.798;2023-02-28T08:58:42;11.43;;;6.43;;
61383;SDS011;63511;49.346;8.798;2023-02-28T09:01:09;13.35;;;6.60;;
61383;SDS011;63511;49.346;8.798;2023-02-28T09:03:37;12.52;;;6.55;;
61383;SDS011;63511;49.346;8.798;2023-02-28T09:06:06;10.82;;;6.60;;
61383;SDS011;63511;49.346;8.798;2023-02-28T09:08:32;13.27;;;7.07;;
61383;SDS011;63511;49.346;8.798;2023-02-28T09:10:59;15.00;;;6.40;;
61383;SDS011;63511;49.346;8.798;2023-02-28T09:13:28;11.63;;;6.47;;
61383;SDS011;63511;49.346;8.798;2023-02-28T09:15:57;12.57;;;6.93;;
61383;SDS011;63511;49.346;8.798;2023-02-28T09:18:24;11.60;;;6.22;;
61383;SDS011;63511;49.346;8.798;2023-02-28T09:20:51;13.32;;;6.53;;
61383;SDS011;63511;49.346;8.798;2023-02-28T09:23:17;11.93;;;7.15;;
61383;SDS011;63511;49.346;8.798;2023-02-28T09:25:45;15.23;;;6.97;;
61383;SDS011;63511;49.346;8.798;2023-02-28T09:28:12;12.15;;;6.97;;
61383;SDS011;63511;49.346;8.798;2023-02-28T09:30:42;12.50;;;7.15;;
61383;SDS011;63511;49.346;8.798;2023-02-28T09:33:10;12.70;;;7.00;;
61383;SDS011;63511;49.346;8.798;2023-02-28T09:35:37;10.75;;;6.65;;
61383;SDS011;63511;49.346;8.798;2023-02-28T09:38:04;10.13;;;6.90;;
61383;SDS011;63511;49.346;8.798;2023-02-28T09:40:34;12.43;;;6.75;;
61383;SDS011;63511;49.346;8.798;2023-02-28T09:43:02;13.95;;;6.95;;
61383;SDS011;63511;49.346;8.798;2023-02-28T09:45:31;15.50;;;7.05;;
61383;SDS011;63511;49.346;8.798;2023-02-28T09:48:03;12.27;;;6.75;;
61383;SDS011;63511;49.346;8.798;2023-02-28T09:50:33;14.90;;;8.27;;
61383;SDS011;63511;49.346;8.798;2023-02-28T09:53:05;12.80;;;6.57;;
61383;SDS011;63511;49.346;8.798;2023-02-28T09:55:42;13.82;;;7.07;;
61383;SDS011;63511;49.346;8.798;2023-02-28T09:58:15;11.80;;;7.47;;
61383;SDS011;63511;49.346;8.798;2023-02-28T10:00:49;15.73;;;8.40;;
61383;SDS011;63511;49.346;8.798;2023-02-28T10:03:27;14.07;;;7.65;;
61383;SDS011;63511;49.346;8.798;2023-02-28T10:05:59;19.90;;;7.35;;
61383;SDS011;63511;49.346;8.798;2023-02-28T10:08:33;11.07;;;6.70;;
61383;SDS011;63511;49.346;8.798;2023-02-28T10:11:07;15.75;;;7.10;;
61383;SDS011;63511;49.346;8.798;2023-02-28T10:16:11;11.80;;;6.47;;
61383;SDS011;63511;49.346;8.798;2023-02-28T10:18:43;12.40;;;7.70;;
61383;SDS011;63511;49.346;8.798;2023-02-28T10:21:15;13.40;;;7.40;;
61383;SDS011;63511;49.346;8.798;2023-02-28T10:23:46;15.23;;;6.72;;
61383;SDS011;63511;49.346;8.798;2023-02-28T10:26:16;13.05;;;7.38;;
61383;SDS011;63511;49.346;8.798;2023-02-28T10:28:43;12.00;;;6.97;;
61383;SDS011;63511;49.346;8.798;2023-02-28T10:31:11;12.85;;;7.72;;
61383;SDS011;63511;49.346;8.798;2023-02-28T10:33:43;12.55;;;7.38;;
61383;SDS011;63511;49.346;8.798;2023-02-28T10:36:12;17.70;;;7.45;;
61383;SDS011;63511;49.346;8.798;2023-02-28T10:38:43;12.10;;;8.02;;
61383;SDS011;63511;49.346;8.798;2023-02-28T10:41:12;12.23;;;7.28;;
61383;SDS011;63511;49.346;8.798;2023-02-28T10:43:41;14.18;;;8.40;;
61383;SDS011;63511;49.346;8.798;2023-02-28T10:46:11;10.38;;;6.32;;
61383;SDS011;63511;49.346;8.798;2023-02-28T10:48:57;11.25;;;7.07;;
61383;SDS011;63511;49.346;8.798;2023-02-28T10:51:33;15.15;;;8.93;;
61383;SDS011;63511;49.346;8.798;2023-02-28T10:54:02;11.18;;;6.93;;
61383;SDS011;63511;49.346;8.798;2023-02-28T10:56:29;13.35;;;8.15;;
61383;SDS011;63511;49.346;8.798;2023-02-28T10:58:58;16.30;;;7.72;;
61383;SDS011;63511;49.346;8.798;2023-02-28T11:01:34;13.43;;;7.78;;
61383;SDS011;63511;49.346;8.798;2023-02-28T11:04:04;16.95;;;7.82;;
61383;SDS011;63511;49.346;8.798;2023-02-28T11:06:44;15.38;;;6.88;;
61383;SDS011;63511;49.346;8.798;2023-02-28T11:09:16;13.82;;;7.70;;
61383;SDS011;63511;49.346;8.798;2023-02-28T11:11:48;14.10;;;7.65;;
61383;SDS011;63511;49.346;8.798;2023-02-28T11:14:18;16.90;;;7.93;;
61383;SDS011;63511;49.346;8.798;2023-02-28T11:16:47;14.45;;;8.48;;
61383;SDS011;63511;49.346;8.798;2023-02-28T11:19:18;12.43;;;7.30;;
61383;SDS011;63511;49.346;8.798;2023-02-28T11:21:48;13.63;;;7.97;;
61383;SDS011;63511;49.346;8.798;2023-02-28T11:24:21;14.02;;;7.20;;
61383;SDS011;63511;49.346;8.798;2023-02-28T11:26:50;14.10;;;7.85;;
61383;SDS011;63511;49.346;8.798;2023-02-28T11:29:18;13.35;;;8.15;;
61383;SDS011;63511;49.346;8.798;2023-02-28T11:32:03;10.25;;;6.82;;
61383;SDS011;63511;49.346;8.798;2023-02-28T11:34:46;10.82;;;7.07;;
61383;SDS011;63511;49.346;8.798;2023-02-28T11:37:25;13.48;;;8.85;;
61383;SDS011;63511;49.346;8.798;2023-02-28T11:39:54;13.32;;;8.65;;
61383;SDS011;63511;49.346;8.798;2023-02-28T11:42:24;12.90;;;8.10;;
61383;SDS011;63511;49.346;8.798;2023-02-28T11:45:22;12.60;;;7.50;;
61383;SDS011;63511;49.346;8.798;2023-02-28T11:48:18;14.05;;;8.98;;
61383;SDS011;63511;49.346;8.798;2023-02-28T11:50:54;15.98;;;8.65;;
61383;SDS011;63511;49.346;8.798;2023-02-28T11:53:35;15.38;;;8.75;;
61383;SDS011;63511;49.346;8.798;2023-02-28T11:56:15;15.02;;;8.73;;
61383;SDS011;63511;49.346;8.798;2023-02-28T11:58:51;14.25;;;7.63;;
61383;SDS011;63511;49.346;8.798;2023-02-28T12:01:33;13.10;;;8.13;;
61383;SDS011;63511;49.346;8.798;2023-02-28T12:04:17;19.63;;;8.65;;
61383;SDS011;63511;49.346;8.798;2023-02-28T12:06:54;15.70;;;9.65;;
61383;SDS011;63511;49.346;8.798;2023-02-28T12:12:19;13.07;;;8.10;;
61383;SDS011;63511;49.346;8.798;2023-02-28T12:15:02;13.77;;;8.38;;
61383;SDS011;63511;49.346;8.798;2023-02-28T12:17:45;15.55;;;8.07;;
61383;SDS011;63511;49.346;8.798;2023-02-28T12:20:24;13.38;;;8.40;;
61383;SDS011;63511;49.346;8.798;2023-02-28T12:23:01;12.88;;;7.47;;
61383;SDS011;63511;49.346;8.798;2023-02-28T12:25:44;19.63;;;8.70;;
61383;SDS011;63511;49.346;8.798;2023-02-28T12:28:18;20.92;;;9.80;;
61383;SDS011;63511;49.346;8.798;2023-02-28T12:30:50;15.20;;;10.13;;
61383;SDS011;63511;49.346;8.798;2023-02-28T12:33:21;15.52;;;9.02;;
61383;SDS011;63511;49.346;8.798;2023-02-28T12:35:51;12.27;;;8.23;;
61383;SDS011;63511;49.346;8.798;2023-02-28T12:38:23;16.13;;;9.25;;
61383;SDS011;63511;49.346;8.798;2023-02-28T12:40:54;13.90;;;8.73;;
61383;SDS011;63511;49.346;8.798;2023-02-28T12:43:27;16.15;;;8.60;;
61383;SDS011;63511;49.346;8.798;2023-02-28T12:45:59;14.75;;;8.85;;
61383;SDS011;63511;49.346;8.798;2023-02-28T12:48:31;14.85;;;8.32;;
61383;SDS011;63511;49.346;8.798;2023-02-28T12:51:03;16.17;;;9.20;;
61383;SDS011;63511;49.346;8.798;2023-02-28T12:53:59;14.23;;;9.33;;
61383;SDS011;63511;49.346;8.798;2023-02-28T12:56:36;13.63;;;8.68;;
61383;SDS011;63511;49.346;8.798;2023-02-28T12:59:10;15.35;;;9.05;;
61383;SDS011;63511;49.346;8.798;2023-02-28T13:01:49;15.63;;;8.77;;
61383;SDS011;63511;49.346;8.798;2023-02-28T13:04:36;18.30;;;9.30;;
61383;SDS011;63511;49.346;8.798;2023-02-28T13:10:40;16.23;;;9.73;;
61383;SDS011;63511;49.346;8.798;2023-02-28T13:13:13;17.23;;;9.05;;
61383;SDS011;63511;49.346;8.798;2023-02-28T13:15:57;13.55;;;8.82;;
61383;SDS011;63511;49.346;8.798;2023-02-28T13:18:27;17.05;;;9.60;;
61383;SDS011;63511;49.346;8.798;2023-02-28T13:20:57;17.10;;;8.98;;
61383;SDS011;63511;49.346;8.798;2023-02-28T13:26:24;20.58;;;9.75;;
61383;SDS011;63511;49.346;8.798;2023-02-28T13:29:30;17.58;;;9.57;;
61383;SDS011;63511;49.346;8.798;2023-02-28T13:34:47;19.40;;;9.80;;
61383;SDS011;63511;49.346;8.798;2023-02-28T13:37:44;18.23;;;9.23;;
61383;SDS011;63511;49.346;8.798;2023-02-28T13:40:28;15.90;;;9.57;;
61383;SDS011;63511;49.346;8.798;2023-02-28T13:43:03;15.50;;;9.23;;
61383;SDS011;63511;49.346;8.798;2023-02-28T13:45:34;15.32;;;9.15;;
61383;SDS011;63511;49.346;8.798;2023-02-28T13:48:03;17.23;;;9.70;;
61383;SDS011;63511;49.346;8.798;2023-02-28T13:50:33;14.18;;;9.27;;
61383;SDS011;63511;49.346;8.798;2023-02-28T13:53:14;14.60;;;8.30;;
61383;SDS011;63511;49.346;8.798;2023-02-28T13:56:16;15.30;;;9.55;;
61383;SDS011;63511;49.346;8.798;2023-02-28T13:58:51;13.40;;;8.98;;
61383;SDS011;63511;49.346;8.798;2023-02-28T14:01:36;12.55;;;8.25;;
61383;SDS011;63511;49.346;8.798;2023-02-28T14:07:23;15.60;;;7.95;;
61383;SDS011;63511;49.346;8.798;2023-02-28T14:09:57;14.00;;;9.40;;
61383;SDS011;63511;49.346;8.798;2023-02-28T14:15:30;10.55;;;8.45;;
61383;SDS011;63511;49.346;8.798;2023-02-28T14:18:11;14.48;;;8.52;;
61383;SDS011;63511;49.346;8.798;2023-02-28T14:20:43;12.77;;;8.38;;
61383;SDS011;63511;49.346;8.798;2023-02-28T14:23:15;15.20;;;9.13;;
61383;SDS011;63511;49.346;8.798;2023-02-28T14:25:53;14.88;;;8.88;;
61383;SDS011;63511;49.346;8.798;2023-02-28T14:28:32;15.60;;;8.75;;
61383;SDS011;63511;49.346;8.798;2023-02-28T14:31:13;15.32;;;9.27;;
61383;SDS011;63511;49.346;8.798;2023-02-28T14:33:47;16.40;;;8.75;;
61383;SDS011;63511;49.346;8.798;2023-02-28T14:36:31;14.25;;;8.52;;
61383;SDS011;63511;49.346;8.798;2023-02-28T14:38:59;18.63;;;9.45;;
61383;SDS011;63511;49.346;8.798;2023-02-28T14:41:31;14.10;;;9.05;;
61383;SDS011;63511;49.346;8.798;2023-02-28T14:44:01;14.90;;;9.15;;
61383;SDS011;63511;49.346;8.798;2023-02-28T14:46:34;14.63;;;9.52;;
61383;SDS011;63511;49.346;8.798;2023-02-28T14:49:03;16.38;;;9.32;;
61383;SDS011;63511;49.346;8.798;2023-02-28T14:51:32;15.35;;;9.25;;
61383;SDS011;63511;49.346;8.798;2023-02-28T14:54:00;36.28;;;11.45;;
61383;SDS011;63511;49.346;8.798;2023-02-28T14:56:30;15.93;;;8.55;;
61383;SDS011;63511;49.346;8.798;2023-02-28T14:59:00;14.88;;;8.15;;
61383;SDS011;63511;49.346;8.798;2023-02-28T15:01:27;13.60;;;8.43;;
61383;SDS011;63511;49.346;8.798;2023-02-28T15:04:00;15.13;;;9.75;;
61383;SDS011;63511;49.346;8.798;2023-02-28T15:06:29;15.25;;;8.93;;
61383;SDS011;63511;49.346;8.798;2023-02-28T15:09:06;14.77;;;9.07;;
61383;SDS011;63511;49.346;8.798;2023-02-28T15:11:34;12.93;;;9.25;;
61383;SDS011;63511;49.346;8.798;2023-02-28T15:14:03;17.42;;;9.43;;
61383;SDS011;63511;49.346;8.798;2023-02-28T15:16:31;16.02;;;9.32;;
61383;SDS011;63511;49.346;8.798;2023-02-28T15:19:03;13.57;;;9.00;;
61383;SDS011;63511;49.346;8.798;2023-02-28T15:21:33;16.80;;;9.95;;
61383;SDS011;63511;49.346;8.798;2023-02-28T15:24:02;16.45;;;9.45;;
61383;SDS011;63511;49.346;8.798;2023-02-28T15:26:32;17.08;;;9.43;;
61383;SDS011;63511;49.346;8.798;2023-02-28T15:29:03;15.52;;;9.82;;
61383;SDS011;63511;49.346;8.798;2023-02-28T15:31:32;13.50;;;9.45;;
61383;SDS011;63511;49.346;8.798;2023-02-28T15:34:04;15.82;;;9.20;;